createdAt,value
2023-03-02T00:01:34.204Z,2.16
2023-03-02T00:04:02.937Z,2.20
2023-03-02T00:06:31.047Z,2.02
2023-03-02T00:09:02.382Z,1.83
2023-03-02T00:11:30.407Z,1.49
2023-03-02T00:13:57.031Z,1.36
2023-03-02T00:16:23.592Z,1.02
2023-03-02T00:18:50.000Z,1.10
2023-03-02T00:21:16.693Z,1.05
2023-03-02T00:23:43.257Z,0.64
2023-03-02T00:26:09.637Z,0.59
2023-03-02T00:28:36.161Z,0.39
2023-03-02T00:31:06.660Z,0.63
2023-03-02T00:33:34.582Z,0.66
2023-03-02T00:36:02.177Z,0.58
2023-03-02T00:38:29.146Z,0.41
2023-03-02T00:40:56.241Z,0.28
2023-03-02T00:43:27.205Z,0.21
2023-03-02T00:45:56.674Z,0.25
2023-03-02T00:48:23.050Z,0.30
2023-03-02T00:50:49.768Z,0.29
2023-03-02T00:53:17.848Z,0.39
2023-03-02T00:55:54.236Z,0.35
2023-03-02T00:58:21.537Z,0.51
2023-03-02T01:00:48.184Z,0.58
2023-03-02T01:03:14.820Z,0.59
2023-03-02T01:05:42.323Z,0.64
2023-03-02T01:08:08.758Z,0.76
2023-03-02T01:10:35.129Z,0.53
2023-03-02T01:13:01.750Z,0.59
2023-03-02T01:15:28.129Z,0.55
2023-03-02T01:17:54.536Z,0.44
2023-03-02T01:20:21.040Z,0.45
2023-03-02T01:22:47.497Z,0.37
2023-03-02T01:25:13.998Z,0.31
2023-03-02T01:27:40.358Z,0.26
2023-03-02T01:30:07.455Z,0.11
2023-03-02T01:32:33.966Z,0.14
2023-03-02T01:35:00.381Z,0.18
2023-03-02T01:37:26.834Z,0.02
2023-03-02T01:39:53.231Z,-0.14
2023-03-02T01:42:19.757Z,-0.20
2023-03-02T01:44:51.286Z,-0.21
2023-03-02T01:47:22.670Z,-0.37
2023-03-02T01:50:24.641Z,-0.39
2023-03-02T01:52:51.942Z,-0.26
2023-03-02T01:55:25.059Z,-0.26
2023-03-02T01:57:53.883Z,-0.21
2023-03-02T02:00:32.589Z,-0.09
2023-03-02T02:03:09.388Z,-0.08
2023-03-02T02:05:39.701Z,-0.08
2023-03-02T02:08:06.988Z,-0.06
2023-03-02T02:10:34.289Z,-0.47
2023-03-02T02:13:01.294Z,-0.33
2023-03-02T02:15:27.703Z,-0.25
2023-03-02T02:17:55.601Z,-0.33
2023-03-02T02:20:52.072Z,-0.44
2023-03-02T02:23:33.938Z,-0.28
2023-03-02T02:26:04.023Z,-0.44
2023-03-02T02:28:49.157Z,-0.52
2023-03-02T02:31:22.396Z,-0.42
2023-03-02T02:33:53.213Z,-0.39
2023-03-02T02:36:23.332Z,-0.38
2023-03-02T02:38:54.170Z,-0.46
2023-03-02T02:41:28.626Z,-0.50
2023-03-02T02:43:55.908Z,-0.49
2023-03-02T02:46:23.680Z,-0.31
2023-03-02T02:48:50.299Z,-0.33
2023-03-02T02:51:23.590Z,-0.20
2023-03-02T02:53:59.753Z,-0.14
2023-03-02T02:56:32.744Z,-0.01
2023-03-02T02:59:09.680Z,0.07
2023-03-02T03:01:36.212Z,0.27
2023-03-02T03:04:04.793Z,0.33
2023-03-02T03:06:42.410Z,0.47
2023-03-02T03:09:10.616Z,0.56
2023-03-02T03:11:41.612Z,0.63
2023-03-02T03:14:19.787Z,0.70
2023-03-02T03:16:47.988Z,0.90
2023-03-02T03:19:21.273Z,0.92
2023-03-02T03:21:50.952Z,0.92
2023-03-02T03:24:18.123Z,1.02
2023-03-02T03:26:45.138Z,1.05
2023-03-02T03:29:12.975Z,1.06
2023-03-02T03:31:39.891Z,1.07
2023-03-02T03:34:07.170Z,1.03
2023-03-02T03:36:34.423Z,1.04
2023-03-02T03:39:02.303Z,0.89
2023-03-02T03:41:28.698Z,0.90
2023-03-02T03:43:55.498Z,0.91
2023-03-02T03:46:21.977Z,0.74
2023-03-02T03:48:48.533Z,0.86
2023-03-02T03:51:14.983Z,0.85
2023-03-02T03:53:41.565Z,0.87
2023-03-02T03:56:07.940Z,0.83
2023-03-02T03:58:34.466Z,0.86
2023-03-02T04:01:00.879Z,0.71
2023-03-02T04:03:27.592Z,0.78
2023-03-02T04:05:53.965Z,0.83
2023-03-02T04:08:21.223Z,0.84
2023-03-02T04:10:47.625Z,0.94
2023-03-02T04:13:14.250Z,0.97
2023-03-02T04:15:41.770Z,0.86
2023-03-02T04:18:08.510Z,0.74
2023-03-02T04:20:35.408Z,0.70
2023-03-02T04:23:01.980Z,0.66
2023-03-02T04:25:29.772Z,0.69
2023-03-02T04:27:56.575Z,0.54
2023-03-02T04:30:25.962Z,0.61
2023-03-02T04:32:52.439Z,0.58
2023-03-02T04:35:19.509Z,0.47
2023-03-02T04:37:46.873Z,0.47
2023-03-02T04:40:14.650Z,0.49
2023-03-02T04:42:41.724Z,0.48
2023-03-02T04:45:08.543Z,0.33
2023-03-02T04:47:34.956Z,0.37
2023-03-02T04:50:01.318Z,0.45
2023-03-02T04:52:27.773Z,0.37
2023-03-02T04:54:54.141Z,0.52
2023-03-02T04:57:23.403Z,0.65
2023-03-02T04:59:49.730Z,0.64
2023-03-02T05:02:16.147Z,0.64
2023-03-02T05:04:42.650Z,0.69
2023-03-02T05:07:09.140Z,0.74
2023-03-02T05:09:35.826Z,0.74
2023-03-02T05:12:02.319Z,0.83
2023-03-02T05:14:29.709Z,0.85
2023-03-02T05:16:56.747Z,0.93
2023-03-02T05:19:23.224Z,0.92
2023-03-02T05:21:49.867Z,1.06
2023-03-02T05:24:16.628Z,1.11
2023-03-02T05:26:43.067Z,1.05
2023-03-02T05:29:09.603Z,1.07
2023-03-02T05:31:39.362Z,1.04
2023-03-02T05:34:09.091Z,1.02
2023-03-02T05:36:36.020Z,1.08
2023-03-02T05:39:03.740Z,1.13
2023-03-02T05:41:30.182Z,1.14
2023-03-02T05:43:56.665Z,1.09
2023-03-02T05:46:23.302Z,1.00
2023-03-02T05:48:49.720Z,1.00
2023-03-02T05:51:16.164Z,1.08
2023-03-02T05:53:42.580Z,1.13
2023-03-02T05:56:09.733Z,1.16
2023-03-02T05:58:36.214Z,1.14
2023-03-02T06:01:02.708Z,1.11
2023-03-02T06:03:29.210Z,1.16
2023-03-02T06:05:56.145Z,1.16
2023-03-02T06:08:22.578Z,1.10
2023-03-02T06:10:50.665Z,1.05
2023-03-02T06:13:17.068Z,1.07
2023-03-02T06:15:43.823Z,1.02
2023-03-02T06:18:12.465Z,1.05
2023-03-02T06:20:39.529Z,1.15
2023-03-02T06:23:06.089Z,1.12
2023-03-02T06:25:32.553Z,1.04
2023-03-02T06:27:58.940Z,1.06
2023-03-02T06:30:26.043Z,1.12
2023-03-02T06:32:52.581Z,1.03
2023-03-02T06:35:19.470Z,1.18
2023-03-02T06:37:45.918Z,1.14
2023-03-02T06:40:13.832Z,1.19
2023-03-02T06:42:42.110Z,1.14
2023-03-02T06:45:09.761Z,1.18
2023-03-02T06:47:36.395Z,1.17
2023-03-02T06:50:03.377Z,1.19
2023-03-02T06:52:29.755Z,1.18
2023-03-02T06:54:56.553Z,1.16
2023-03-02T06:57:23.271Z,1.20
2023-03-02T06:59:49.673Z,1.21
2023-03-02T07:02:16.047Z,1.26
2023-03-02T07:04:42.451Z,1.22
2023-03-02T07:07:08.833Z,1.31
2023-03-02T07:09:35.633Z,1.36
2023-03-02T07:12:02.245Z,1.43
2023-03-02T07:14:28.641Z,1.55
2023-03-02T07:16:57.406Z,1.61
2023-03-02T07:19:24.187Z,1.70
2023-03-02T07:21:50.579Z,1.64
2023-03-02T07:24:17.061Z,1.75
2023-03-02T07:26:43.442Z,1.82
2023-03-02T07:29:10.054Z,1.89
2023-03-02T07:31:36.488Z,2.00
2023-03-02T07:34:02.868Z,1.93
2023-03-02T07:36:29.289Z,2.02
2023-03-02T07:38:55.885Z,2.08
2023-03-02T07:41:22.803Z,2.16
2023-03-02T07:43:49.312Z,2.19
2023-03-02T07:46:16.057Z,2.34
2023-03-02T07:48:42.806Z,2.38
2023-03-02T07:51:09.214Z,2.55
2023-03-02T07:53:35.970Z,2.64
2023-03-02T07:56:09.792Z,2.96
2023-03-02T07:58:36.980Z,2.83
2023-03-02T08:01:03.982Z,3.10
2023-03-02T08:03:30.399Z,3.23
2023-03-02T08:05:56.788Z,3.50
2023-03-02T08:08:23.257Z,3.55
2023-03-02T08:10:49.652Z,3.97
2023-03-02T08:13:16.152Z,4.22
2023-03-02T08:15:42.548Z,4.33
2023-03-02T08:18:08.894Z,4.16
2023-03-02T08:20:35.296Z,4.54
2023-03-02T08:23:01.777Z,4.74
2023-03-02T08:25:28.158Z,4.91
2023-03-02T08:27:54.535Z,4.97
2023-03-02T08:30:20.935Z,5.09
2023-03-02T08:32:47.401Z,5.14
2023-03-02T08:35:13.881Z,5.37
2023-03-02T08:37:40.258Z,5.61
2023-03-02T08:40:07.393Z,5.77
2023-03-02T08:42:33.766Z,6.02
2023-03-02T08:45:00.146Z,6.10
2023-03-02T08:47:26.603Z,5.94
2023-03-02T08:49:53.068Z,5.98
2023-03-02T08:52:19.505Z,6.23
2023-03-02T08:54:45.869Z,6.67
2023-03-02T08:57:12.749Z,6.88
2023-03-02T08:59:39.140Z,7.31
2023-03-02T09:02:05.633Z,7.26
2023-03-02T09:04:32.292Z,7.16
2023-03-02T09:06:58.825Z,7.63
2023-03-02T09:09:25.184Z,7.27
2023-03-02T09:11:51.601Z,7.35
2023-03-02T09:14:17.957Z,7.49
2023-03-02T09:16:45.407Z,7.89
2023-03-02T09:19:13.145Z,7.53
2023-03-02T09:21:39.585Z,7.62
2023-03-02T09:24:06.172Z,7.98
2023-03-02T09:26:32.509Z,8.30
2023-03-02T09:28:58.968Z,8.43
2023-03-02T09:31:25.408Z,8.89
2023-03-02T09:33:51.875Z,9.35
2023-03-02T09:36:21.650Z,8.99
2023-03-02T09:38:48.418Z,9.50
2023-03-02T09:41:20.862Z,9.74
2023-03-02T09:44:00.205Z,9.50
2023-03-02T09:46:34.769Z,10.15
2023-03-02T09:49:32.757Z,10.34
2023-03-02T09:52:18.649Z,10.41
2023-03-02T09:54:45.245Z,9.00
2023-03-02T09:57:22.788Z,9.88
2023-03-02T10:00:01.629Z,9.82
2023-03-02T10:02:42.294Z,9.37
2023-03-02T10:05:20.425Z,9.85
2023-03-02T10:07:47.850Z,10.50
2023-03-02T10:10:40.348Z,10.63
2023-03-02T10:13:21.913Z,10.39
2023-03-02T10:16:16.044Z,11.68
2023-03-02T10:19:25.021Z,11.94
2023-03-02T10:22:09.920Z,12.61
2023-03-02T10:24:48.040Z,13.07
2023-03-02T10:27:26.080Z,13.47
2023-03-02T10:29:55.339Z,13.21
2023-03-02T10:32:22.983Z,13.49
2023-03-02T10:34:52.321Z,12.35
2023-03-02T10:37:25.392Z,10.77
2023-03-02T10:39:52.688Z,11.34
2023-03-02T10:42:36.807Z,11.67
2023-03-02T10:45:19.134Z,13.02
2023-03-02T10:47:45.561Z,11.69
2023-03-02T10:50:22.422Z,12.19
2023-03-02T10:52:59.501Z,13.39
2023-03-02T10:55:27.154Z,11.99
2023-03-02T10:58:20.067Z,14.10
2023-03-02T11:01:00.254Z,14.59
2023-03-02T11:03:27.648Z,13.67
2023-03-02T11:05:54.082Z,13.69
2023-03-02T11:08:22.275Z,13.50
2023-03-02T11:11:00.582Z,13.91
2023-03-02T11:13:33.969Z,15.16
2023-03-02T11:16:21.681Z,15.79
2023-03-02T11:18:57.258Z,15.54
2023-03-02T11:21:43.266Z,13.79
2023-03-02T11:24:18.254Z,13.37
2023-03-02T11:26:50.177Z,14.08
2023-03-02T11:29:40.647Z,14.46
2023-03-02T11:32:20.143Z,13.64
2023-03-02T11:34:57.485Z,15.68
2023-03-02T11:37:34.750Z,15.80
2023-03-02T11:40:22.982Z,15.12
2023-03-02T11:42:50.922Z,16.01
2023-03-02T11:45:24.060Z,15.57
2023-03-02T11:48:03.141Z,16.16
2023-03-02T11:50:34.298Z,16.10
2023-03-02T11:53:06.237Z,16.10
2023-03-02T11:55:40.420Z,14.76
2023-03-02T11:58:07.319Z,15.54
2023-03-02T12:00:40.613Z,15.41
2023-03-02T12:03:18.494Z,14.76
2023-03-02T12:06:25.097Z,15.91
2023-03-02T12:09:08.598Z,15.02
2023-03-02T12:11:40.788Z,15.51
2023-03-02T12:14:39.675Z,15.93
2023-03-02T12:17:19.511Z,16.72
2023-03-02T12:19:47.288Z,16.34
2023-03-02T12:22:25.269Z,17.00
2023-03-02T12:25:24.024Z,17.10
2023-03-02T12:27:53.386Z,16.64
2023-03-02T12:30:26.133Z,16.68
2023-03-02T12:33:21.848Z,16.96
2023-03-02T12:35:50.777Z,17.05
2023-03-02T12:38:36.776Z,17.39
2023-03-02T12:41:21.456Z,16.50
2023-03-02T12:44:09.593Z,15.94
2023-03-02T12:46:37.592Z,16.74
2023-03-02T12:49:13.535Z,15.08
2023-03-02T12:52:00.141Z,15.11
2023-03-02T12:54:29.359Z,15.99
2023-03-02T12:57:13.131Z,17.03
2023-03-02T12:59:39.978Z,15.61
2023-03-02T13:02:20.906Z,15.52
2023-03-02T13:05:03.961Z,15.40
2023-03-02T13:07:37.873Z,16.84
2023-03-02T13:10:36.063Z,16.42
2023-03-02T13:13:14.943Z,17.42
2023-03-02T13:15:56.110Z,17.26
2023-03-02T13:18:24.491Z,16.40
2023-03-02T13:20:52.070Z,17.20
2023-03-02T13:23:19.756Z,16.13
2023-03-02T13:25:52.412Z,14.68
2023-03-02T13:28:28.688Z,15.46
2023-03-02T13:31:02.524Z,16.97
2023-03-02T13:33:31.161Z,17.28
2023-03-02T13:35:58.028Z,17.22
2023-03-02T13:38:29.476Z,16.75
2023-03-02T13:40:56.534Z,16.92
2023-03-02T13:43:30.379Z,16.25
2023-03-02T13:46:03.439Z,15.93
2023-03-02T13:48:31.099Z,15.02
2023-03-02T13:51:02.272Z,15.89
2023-03-02T13:53:31.133Z,16.38
2023-03-02T13:56:00.261Z,16.56
2023-03-02T13:58:29.219Z,14.79
2023-03-02T14:00:55.973Z,15.10
2023-03-02T14:03:28.449Z,15.30
2023-03-02T14:05:57.784Z,15.00
2023-03-02T14:08:24.608Z,15.88
2023-03-02T14:10:53.795Z,15.73
2023-03-02T14:13:42.817Z,15.37
2023-03-02T14:16:14.052Z,15.58
2023-03-02T14:18:42.922Z,15.59
2023-03-02T14:21:19.921Z,15.41
2023-03-02T14:23:47.341Z,14.27
2023-03-02T14:26:36.972Z,13.84
2023-03-02T14:29:06.697Z,14.33
2023-03-02T14:31:34.444Z,14.58
2023-03-02T14:34:01.090Z,13.83
2023-03-02T14:36:29.844Z,13.27
2023-03-02T14:38:57.562Z,12.87
2023-03-02T14:41:24.825Z,13.33
2023-03-02T14:43:51.635Z,13.77
2023-03-02T14:46:18.125Z,13.44
2023-03-02T14:48:44.637Z,13.10
2023-03-02T14:51:23.252Z,13.02
2023-03-02T14:53:52.661Z,13.41
2023-03-02T14:56:22.658Z,12.67
2023-03-02T14:58:52.167Z,12.91
2023-03-02T15:01:20.258Z,12.82
2023-03-02T15:03:46.753Z,12.87
2023-03-02T15:06:26.732Z,13.12
2023-03-02T15:08:55.213Z,13.03
2023-03-02T15:11:21.768Z,13.09
2023-03-02T15:13:48.284Z,12.70
2023-03-02T15:16:15.478Z,13.31
2023-03-02T15:18:42.423Z,13.48
2023-03-02T15:21:15.512Z,13.55
2023-03-02T15:23:41.944Z,13.38
2023-03-02T15:26:10.279Z,12.84
2023-03-02T15:28:36.812Z,12.65
2023-03-02T15:31:07.922Z,12.57
2023-03-02T15:33:34.478Z,12.26
2023-03-02T15:36:00.891Z,12.25
2023-03-02T15:38:27.502Z,12.12
2023-03-02T15:40:53.871Z,12.22
2023-03-02T15:43:20.242Z,12.41
2023-03-02T15:45:46.793Z,12.10
2023-03-02T15:48:13.797Z,11.85
2023-03-02T15:50:40.486Z,11.29
2023-03-02T15:53:07.026Z,11.21
2023-03-02T15:55:33.451Z,11.20
2023-03-02T15:57:59.888Z,10.84
2023-03-02T16:00:26.565Z,10.68
2023-03-02T16:02:52.920Z,10.61
2023-03-02T16:05:19.415Z,10.68
2023-03-02T16:07:45.758Z,10.52
2023-03-02T16:10:15.375Z,10.65
2023-03-02T16:12:42.104Z,10.59
2023-03-02T16:15:08.921Z,10.48
2023-03-02T16:17:35.296Z,10.51
2023-03-02T16:20:01.689Z,10.26
2023-03-02T16:22:28.074Z,10.23
2023-03-02T16:24:54.442Z,10.23
2023-03-02T16:27:20.868Z,10.14
2023-03-02T16:29:47.258Z,10.24
2023-03-02T16:32:13.767Z,10.06
2023-03-02T16:34:40.328Z,9.82
2023-03-02T16:37:06.691Z,9.62
2023-03-02T16:39:33.140Z,9.48
2023-03-02T16:41:59.521Z,9.50
2023-03-02T16:44:26.368Z,9.41
2023-03-02T16:46:53.424Z,9.21
2023-03-02T16:49:20.247Z,9.33
2023-03-02T16:51:46.694Z,9.33
2023-03-02T16:54:16.492Z,9.09
2023-03-02T16:56:47.066Z,8.88
2023-03-02T16:59:13.605Z,8.93
2023-03-02T17:01:40.401Z,8.65
2023-03-02T17:04:06.950Z,8.61
2023-03-02T17:06:33.442Z,8.53
2023-03-02T17:09:00.129Z,8.46
2023-03-02T17:11:26.725Z,8.40
2023-03-02T17:13:53.123Z,8.22
2023-03-02T17:16:19.516Z,8.29
2023-03-02T17:18:46.995Z,8.05
2023-03-02T17:21:16.397Z,8.02
2023-03-02T17:23:42.954Z,7.97
2023-03-02T17:26:09.943Z,7.87
2023-03-02T17:28:36.335Z,7.87
2023-03-02T17:31:04.429Z,7.70
2023-03-02T17:33:32.066Z,7.58
2023-03-02T17:35:58.468Z,7.79
2023-03-02T17:38:24.843Z,7.64
2023-03-02T17:40:51.223Z,7.73
2023-03-02T17:43:17.685Z,7.68
2023-03-02T17:45:44.405Z,7.65
2023-03-02T17:48:10.953Z,7.32
2023-03-02T17:50:39.732Z,7.25
2023-03-02T17:53:06.093Z,7.21
2023-03-02T17:55:32.491Z,7.19
2023-03-02T17:57:59.057Z,6.96
2023-03-02T18:00:25.703Z,6.86
2023-03-02T18:02:52.599Z,6.97
2023-03-02T18:05:19.317Z,6.96
2023-03-02T18:07:45.845Z,6.78
2023-03-02T18:10:13.153Z,6.80
2023-03-02T18:12:39.963Z,6.82
2023-03-02T18:15:07.213Z,6.94
2023-03-02T18:17:33.771Z,6.83
2023-03-02T18:20:02.771Z,6.91
2023-03-02T18:22:29.428Z,6.83
2023-03-02T18:24:55.878Z,6.66
2023-03-02T18:27:24.106Z,6.61
2023-03-02T18:29:50.658Z,6.61
2023-03-02T18:32:17.312Z,6.68
2023-03-02T18:34:43.793Z,6.73
2023-03-02T18:37:10.178Z,6.69
2023-03-02T18:39:37.810Z,6.50
2023-03-02T18:42:05.018Z,6.54
2023-03-02T18:44:31.420Z,6.57
2023-03-02T18:46:58.591Z,6.56
2023-03-02T18:49:25.176Z,6.46
2023-03-02T18:51:52.846Z,6.47
2023-03-02T18:54:19.234Z,6.19
2023-03-02T18:56:45.585Z,6.06
2023-03-02T18:59:13.202Z,5.97
2023-03-02T19:01:39.629Z,5.82
2023-03-02T19:04:06.453Z,6.01
2023-03-02T19:06:33.564Z,5.85
2023-03-02T19:09:00.420Z,5.99
2023-03-02T19:11:26.922Z,6.00
2023-03-02T19:13:53.402Z,5.75
2023-03-02T19:16:19.972Z,5.87
2023-03-02T19:18:46.375Z,5.84
2023-03-02T19:21:12.872Z,5.75
2023-03-02T19:23:39.358Z,5.76
2023-03-02T19:26:05.702Z,5.63
2023-03-02T19:28:34.007Z,5.59
2023-03-02T19:31:06.464Z,5.48
2023-03-02T19:33:33.239Z,5.62
2023-03-02T19:35:59.787Z,5.39
2023-03-02T19:38:29.048Z,5.27
2023-03-02T19:40:57.839Z,5.22
2023-03-02T19:43:24.914Z,5.04
2023-03-02T19:45:51.516Z,4.99
2023-03-02T19:48:18.904Z,5.00
2023-03-02T19:50:45.565Z,4.97
2023-03-02T19:53:12.607Z,4.90
2023-03-02T19:55:39.577Z,4.88
2023-03-02T19:58:07.819Z,4.92
2023-03-02T20:00:35.303Z,4.75
2023-03-02T20:03:01.837Z,4.56
2023-03-02T20:05:28.249Z,4.68
2023-03-02T20:07:54.763Z,4.62
2023-03-02T20:10:28.410Z,4.51
2023-03-02T20:12:54.829Z,4.61
2023-03-02T20:15:21.253Z,4.32
2023-03-02T20:17:47.754Z,4.46
2023-03-02T20:20:17.315Z,4.45
2023-03-02T20:22:45.396Z,4.47
2023-03-02T20:25:14.402Z,4.44
2023-03-02T20:27:40.860Z,4.35
2023-03-02T20:30:10.879Z,4.40
2023-03-02T20:32:37.376Z,4.40
2023-03-02T20:35:04.239Z,4.16
2023-03-02T20:37:30.628Z,4.09
2023-03-02T20:39:57.505Z,4.05
2023-03-02T20:42:23.969Z,3.90
2023-03-02T20:44:51.754Z,3.92
2023-03-02T20:47:18.276Z,3.72
2023-03-02T20:49:44.726Z,3.88
2023-03-02T20:52:11.481Z,3.87
2023-03-02T20:54:41.526Z,3.80
2023-03-02T20:57:08.946Z,3.87
2023-03-02T20:59:38.402Z,3.75
2023-03-02T21:02:07.883Z,3.81
2023-03-02T21:04:35.994Z,3.58
2023-03-02T21:07:03.034Z,3.73
2023-03-02T21:09:32.824Z,3.68
2023-03-02T21:11:59.270Z,3.36
2023-03-02T21:14:30.638Z,3.38
2023-03-02T21:16:59.659Z,3.42
2023-03-02T21:19:37.419Z,3.47
2023-03-02T21:22:07.019Z,3.56
2023-03-02T21:24:33.404Z,3.50
2023-03-02T21:27:01.319Z,3.59
2023-03-02T21:29:28.059Z,3.28
2023-03-02T21:31:54.912Z,3.08
2023-03-02T21:34:24.641Z,3.10
2023-03-02T21:36:53.639Z,3.13
2023-03-02T21:39:23.593Z,3.11
2023-03-02T21:41:50.783Z,2.99
2023-03-02T21:44:20.486Z,3.00
2023-03-02T21:46:47.406Z,3.01
2023-03-02T21:49:19.465Z,2.95
2023-03-02T21:51:48.068Z,3.04
2023-03-02T21:54:15.447Z,3.11
2023-03-02T21:56:43.229Z,3.01
2023-03-02T21:59:10.557Z,2.95
2023-03-02T22:01:36.917Z,2.85
2023-03-02T22:04:03.506Z,2.79
2023-03-02T22:06:32.600Z,2.59
2023-03-02T22:08:59.601Z,2.46
2023-03-02T22:11:28.875Z,2.34
2023-03-02T22:14:00.779Z,2.39
2023-03-02T22:16:35.675Z,2.30
2023-03-02T22:19:07.724Z,2.35
2023-03-02T22:21:38.046Z,2.18
2023-03-02T22:24:10.987Z,1.98
2023-03-02T22:26:41.971Z,2.09
2023-03-02T22:29:23.509Z,2.04
2023-03-02T22:31:52.904Z,2.00
2023-03-02T22:34:24.709Z,2.10
2023-03-02T22:36:51.638Z,2.00
2023-03-02T22:39:27.615Z,1.78
2023-03-02T22:42:18.179Z,1.67
2023-03-02T22:44:51.690Z,1.70
2023-03-02T22:47:21.841Z,1.78
2023-03-02T22:49:57.947Z,1.71
2023-03-02T22:52:27.882Z,1.53
2023-03-02T22:54:55.095Z,1.68
2023-03-02T22:57:35.268Z,1.81
2023-03-02T23:00:33.738Z,1.66
2023-03-02T23:03:00.168Z,1.76
2023-03-02T23:05:34.615Z,1.80
2023-03-02T23:08:22.980Z,1.67
2023-03-02T23:10:51.424Z,1.82
2023-03-02T23:13:21.556Z,1.84
2023-03-02T23:15:49.914Z,1.81
2023-03-02T23:18:24.547Z,1.79
2023-03-02T23:20:52.290Z,1.73
2023-03-02T23:23:19.776Z,1.49
2023-03-02T23:25:47.931Z,1.40
2023-03-02T23:28:14.643Z,1.28
2023-03-02T23:30:41.041Z,1.21
2023-03-02T23:33:07.647Z,1.23
2023-03-02T23:35:34.216Z,1.41
2023-03-02T23:38:01.442Z,1.34
2023-03-02T23:40:28.790Z,1.20
2023-03-02T23:42:55.704Z,1.37
2023-03-02T23:45:22.113Z,1.34
2023-03-02T23:47:48.721Z,1.23
2023-03-02T23:50:15.123Z,1.44
2023-03-02T23:52:41.514Z,1.27
2023-03-02T23:55:09.086Z,1.32
2023-03-02T23:57:35.477Z,1.27
